METAR Data
IDs: Format: Raw Decoded Include TAF

Data at: 2258 UTC 25 Oct 2021

PASL 252256Z AUTO VRB03KT 10SM UP BKN019 OVC055 M01/M04 A2933 RMK AO2 SNB22E31 SLP923 P0000 T10061039 FZRANO
PASL 252156Z AUTO VRB05KT 10SM UP OVC042 M02/M04 A2933 RMK AO2 UPB02E17B44SNE02B17E44 SLP923 P0000 T10171044 FZRANO
PASL 252056Z AUTO 00000KT 9SM -SN OVC040 M02/M05 A2933 RMK AO2 UPB37E45SNE37B45 SLP926 P0000 60000 T10221050 53005 FZRANO
PASL 251956Z AUTO VRB04KT 9SM -SN OVC040 M03/M05 A2933 RMK AO2 SLP924 P0000 T10281050 FZRANO
PASL 251856Z AUTO VRB03KT 9SM -SN OVC038 M03/M05 A2932 RMK AO2 SLP922 P0000 T10281050 FZRANO
PASL 251756Z AUTO VRB04KT 9SM -SN OVC036 M03/M05 A2932 RMK AO2 SLP921 P0000 60000 T10331050 11033 21050 56002 FZRANO
PASL 251656Z AUTO 00000KT 9SM -SN OVC036 M03/M05 A2932 RMK AO2 SLP921 P0000 T10331050 FZRANO
PASL 251556Z AUTO 00000KT 9SM -SN OVC036 M04/M05 A2932 RMK AO2 SNB25 SLP921 P0000 T10391050 FZRANO
PASL 251456Z AUTO VRB03KT 10SM OVC036 M04/M04 A2932 RMK AO2 SLP922 60000 T10391044 56009 FZRANO
PASL 251356Z AUTO 00000KT 10SM OVC034 M04/M06 A2933 RMK AO2 SNE02 SLP925 P0000 T10441056 FZRANO
PASL 251256Z AUTO VRB04KT 10SM -SN OVC036 M05/M06 A2934 RMK AO2 SNB52 SLP928 P0000 T10501056 FZRANO
PASL 251156Z AUTO 00000KT 10SM SCT038 OVC090 M05/M06 A2935 RMK AO2 SLP932 60000 70002 T10501056 11039 21061 57010 FZRANO
PASL 251056Z AUTO 00000KT 10SM OVC090 M04/M05 A2936 RMK AO2 SNE04 SLP935 P0000 T10441050 FZRANO
PASL 250956Z AUTO 00000KT 10SM -SN OVC070 M04/M05 A2937 RMK AO2 SNB54 SLP939 P0000 T10391050 FZRANO
PASL 250856Z AUTO 00000KT 10SM OVC070 M04/M05 A2938 RMK AO2 SNE10 SLP942 P0000 60000 T10441050 400061061 56011 FZRANO
PASL 250756Z AUTO 00000KT 9SM -SN BKN080 M06/M08 A2939 RMK AO2 SNB14 SLP945 P0000 T10611078 FZRANO
PASL 250656Z AUTO 00000KT 10SM SCT085 M06/M07 A2940 RMK AO2 SNE09 SLP947 P0000 T10561067 FZRANO
PASL 250556Z AUTO 00000KT 9SM -SN BKN110 M04/M06 A2942 RMK AO2 UPB35E52SNB41E50B52 SLP953 P0000 60002 T10441061 10000 21044 58015 FZRANO
PASL 250356Z AUTO 00000KT 10SM UP OVC023 M02/M04 A2945 RMK AO2 SLP965 P0000 T10221039 FZRANO
PASL 250339Z AUTO 00000KT 10SM UP SCT013 OVC026 M02/M03 A2945 RMK AO2 P0000 FZRANO
PASL 250306Z AUTO 00000KT 7SM UP SCT008 BKN013 OVC039 M01/M02 A2946 RMK AO2 P0000 FZRANO
PASL 250256Z AUTO 00000KT 5SM UP BR SCT008 BKN015 OVC037 M01/M02 A2946 RMK AO2 UPB0157E04B29SNE0157B04E29 SLP970 P0002 60002 T10111022 56009 FZRANO
PASL 250247Z AUTO 00000KT 2 1/2SM UP BR BKN008 BKN015 OVC037 M01/M02 A2946 RMK AO2 UPB0157E04B29SNE0157B04E29 CIG 005V012 P0002 FZRANO
PASL 250222Z AUTO 00000KT 1 1/4SM -SN BR OVC008 M01/M02 A2947 RMK AO2 UPB0157E04SNE0157B04 CIG 007V012 P0001 FZRANO
PASL 250216Z AUTO 00000KT 1SM -SN BR BKN010 OVC013 M01/M02 A2947 RMK AO2 UPB0157E04SNE0157B04 CIG 007V012 P0001 FZRANO
PASL 250205Z AUTO 00000KT 1 1/4SM -SN BR BKN010 OVC017 M01/M02 A2947 RMK AO2 UPB0157E04SNE0157B04 CIG 006V013 P0001 FZRANO
PASL 250156Z AUTO 00000KT 1 1/4SM -SN BR BKN009 OVC015 M01/M02 A2948 RMK AO2 CIG 008V014 SLP974 P0000 T10061017 FZRANO
PASL 250147Z AUTO 00000KT 1 1/4SM -SN BR BKN009 OVC018 M01/M02 A2948 RMK AO2 CIG 006V012 P0000 FZRANO
PASL 250113Z AUTO 00000KT 1 3/4SM -SN BR SCT012 OVC023 M01/M02 A2949 RMK AO2 P0000 FZRANO
PASL 250024Z AUTO 00000KT 10SM UP BKN016 BKN038 OVC048 00/M02 A2950 RMK AO2 P0000 FZRANO
PASL 242356Z AUTO 00000KT 10SM UP SCT021 SCT028 OVC041 00/M02 A2951 RMK AO2 RAE01UPB01E03B30SNB03E30 SLP984 P0000 60000 T00001017 10006 21006 58010 FZRANO
PASL 242339Z AUTO 00000KT 3SM UP BR FEW015 BKN020 OVC032 00/M02 A2951 RMK AO2 RAE01UPB01E03B30SNB03E30 P0000 FZRANO
PASL 242329Z AUTO 00000KT 1 1/4SM -SN BR SCT015 OVC020 00/M02 A2952 RMK AO2 RAE01UPB01E03SNB03 P0000 FZRANO
PASL 242322Z AUTO 00000KT 3/4SM -SN BR SCT015 OVC022 00/M02 A2952 RMK AO2 RAE01UPB01E03SNB03 P0000 FZRANO
PASL 242156Z AUTO 00000KT 6SM -RA BR BKN017 BKN027 OVC049 01/M01 A2953 RMK AO2 RAE00B22 SLP993 P0000 T00061011 FZRANO
PASL 242148Z AUTO 00000KT 7SM -RA SCT017 BKN027 OVC049 01/M01 A2953 RMK AO2 RAE00B22 P0000 FZRANO
PASL 242056Z AUTO 00000KT 10SM -RA FEW015 SCT026 OVC049 01/M01 A2954 RMK AO2 UPE39RAB33 SLP994 P0000 60000 T00061011 56000 FZRANO
PASL 242051Z AUTO 00000KT 10SM -RA FEW015 SCT021 OVC049 01/M01 A2954 RMK AO2 UPE39RAB33 P0000 FZRANO
PASL 241956Z AUTO 00000KT 6SM UP BR SCT017 OVC025 00/M01 A2954 RMK AO2 UPB21 SLP994 P0000 T00001011 FZRANO
PASL 241922Z AUTO 00000KT 9SM UP FEW017 BKN029 OVC049 00/M01 A2954 RMK AO2 UPB21 P0000 FZRANO
PASL 241856Z AUTO 00000KT 9SM FEW017 OVC049 M01/M02 A2954 RMK AO2 UPE10B33E54SNB10E33 SLP994 P0000 T10061017 FZRANO
PASL 241756Z AUTO 00000KT 7SM UP OVC049 M01/M02 A2954 RMK AO2 UPB06E17B43 SLP994 P0000 60000 T10061017 11006 21017 50004 FZRANO
PASL 241656Z AUTO 00000KT 10SM FEW019 OVC047 M01/M02 A2954 RMK AO2 UPB03E14SNE03 SLP995 P0000 T10061017 FZRANO
PASL 241556Z AUTO 00000KT 10SM -SN OVC049 M01/M02 A2954 RMK AO2 UPB05E51SNB19E29B51 SLP994 P0000 T10061017 FZRANO
PASL 241456Z AUTO 00000KT 10SM BKN049 OVC060 M01/M02 A2953 RMK AO2 UPE33 SLP991 P0000 60000 T10111022 53012 FZRANO
PASL 241356Z AUTO 00000KT 10SM UP FEW016 OVC047 M01/M02 A2951 RMK AO2 SLP987 P0000 T10111022 FZRANO
PASL 241256Z AUTO 00000KT 10SM UP BKN043 BKN055 OVC080 M01/M02 A2950 RMK AO2 SLP982 P0000 T10111022 FZRANO
PASL 241156Z AUTO 00000KT 10SM UP FEW016 SCT041 OVC075 M01/M02 A2949 RMK AO2 UPE28B52SNB1058E08 SLP979 P0000 60000 T10111022 11006 21011 51022 FZRANO